Time;durP1;ratioP1;P1;durP2;ratioP2;P2;SDS_P1;SDS_P2;PMS_P1;PMS_P2;Temp;Humidity;BMP_temperature;BMP_pressure;BME280_temperature;BME280_humidity;BME280_pressure;Samples;Min_cycle;Max_cycle;Signal;HPM_P1;HPM_P2
2023/10/05 00:02:10;;;;;;;14.52;4.38;;;14.90;99.90;;;15.16;67.54;101314.28;4936604;29;20526;-90
2023/10/05 00:04:42;;;;;;;15.48;4.07;;;14.80;99.90;;;15.19;67.49;101309.28;4935043;29;20047;-90
2023/10/05 00:07:17;;;;;;;13.90;4.03;;;14.90;99.90;;;15.20;67.52;101296.69;4935513;29;20090;-90
2023/10/05 00:09:45;;;;;;;14.75;4.25;;;14.80;99.90;;;15.20;67.46;101304.75;4967457;28;20047;-90
2023/10/05 00:12:19;;;;;;;13.35;4.28;;;14.80;99.90;;;15.17;67.39;101297.94;4933526;29;20052;-90
2023/10/05 00:14:48;;;;;;;13.02;4.47;;;14.80;99.90;;;15.15;67.56;101310.78;4935239;29;20054;-90
2023/10/05 00:17:19;;;;;;;14.80;4.18;;;14.80;99.90;;;15.14;67.58;101313.69;4934284;29;20051;-90
2023/10/05 00:19:46;;;;;;;12.63;3.92;;;14.80;99.90;;;15.11;67.65;101311.44;4935987;29;20128;-90
2023/10/05 00:22:16;;;;;;;14.25;4.20;;;14.80;99.90;;;15.14;67.89;101308.31;4966981;28;20555;-90
2023/10/05 00:24:47;;;;;;;10.95;3.88;;;14.70;99.90;;;15.14;67.79;101311.81;4935858;29;20495;-90
2023/10/05 00:27:15;;;;;;;18.13;3.92;;;14.70;99.90;;;15.14;67.92;101305.63;4951347;28;20062;-90
2023/10/05 00:29:46;;;;;;;11.73;4.47;;;14.80;99.90;;;15.15;67.88;101302.72;4934796;29;20059;-90
2023/10/05 00:32:26;;;;;;;13.65;3.90;;;14.80;99.90;;;15.11;67.50;101306.06;4936160;29;20060;-90
2023/10/05 00:35:09;;;;;;;10.82;3.80;;;14.70;99.90;;;15.07;68.03;101310.22;4934745;29;20044;-90
2023/10/05 00:37:42;;;;;;;13.25;4.07;;;14.70;99.90;;;15.03;67.97;101317.94;4947581;28;20070;-90
2023/10/05 00:40:17;;;;;;;10.40;3.75;;;14.70;99.90;;;15.09;67.78;101311.66;4932456;29;20068;-90
2023/10/05 00:42:44;;;;;;;12.35;3.55;;;14.70;99.90;;;15.09;67.86;101308.97;4930101;29;20048;-89
2023/10/05 00:45:12;;;;;;;16.52;4.10;;;14.70;99.90;;;15.09;67.75;101314.34;4928100;29;20053;-90
2023/10/05 00:47:42;;;;;;;9.15;3.58;;;14.70;99.90;;;15.03;67.59;101309.88;4934705;28;20110;-90
2023/10/05 00:50:11;;;;;;;12.77;4.20;;;14.70;99.90;;;15.05;68.05;101310.47;4919029;29;20051;-90
2023/10/05 00:52:43;;;;;;;11.85;3.97;;;14.70;99.90;;;15.09;67.93;101310.84;4966787;28;20522;-90
2023/10/05 00:55:12;;;;;;;10.38;3.50;;;14.70;99.90;;;15.10;68.03;101307.09;4918974;29;20531;-89
2023/10/05 00:57:41;;;;;;;12.63;3.83;;;14.70;99.90;;;15.10;68.07;101307.09;4953901;28;20039;-90
2023/10/05 01:00:26;;;;;;;13.45;4.07;;;14.70;99.90;;;15.09;67.90;101303.59;4970035;28;20392;-90
2023/10/05 01:03:16;;;;;;;16.33;4.05;;;14.70;99.90;;;15.04;68.42;101305.31;4934489;28;20114;-91
2023/10/05 01:05:51;;;;;;;11.02;3.70;;;14.70;99.90;;;14.99;67.99;101313.22;4934331;29;20071;-90
2023/10/05 01:08:23;;;;;;;12.23;3.72;;;14.70;99.90;;;14.97;67.97;101313.41;4920906;29;20151;-90
2023/10/05 01:10:54;;;;;;;14.13;3.78;;;14.70;99.90;;;14.96;68.14;101309.09;4935467;29;20051;-90
2023/10/05 01:13:32;;;;;;;14.88;3.47;;;14.70;99.90;;;14.91;68.05;101315.13;4920255;29;20141;-90
2023/10/05 01:16:12;;;;;;;13.60;3.50;;;14.60;99.90;;;14.96;68.13;101311.78;4903288;29;20048;-90
2023/10/05 01:18:40;;;;;;;13.25;3.92;;;14.70;99.90;;;14.97;68.27;101312.59;4909832;29;20126;-90
2023/10/05 01:21:09;;;;;;;14.40;3.47;;;14.70;99.90;;;14.93;68.41;101310.34;4919001;29;20511;-90
2023/10/05 01:23:39;;;;;;;11.82;3.60;;;14.70;99.90;;;14.91;68.37;101309.75;4951279;28;20074;-90
2023/10/05 01:26:11;;;;;;;9.10;3.13;;;14.60;99.90;;;14.90;68.42;101305.41;4920865;29;20076;-91
2023/10/05 01:28:41;;;;;;;18.08;3.85;;;14.70;99.90;;;14.88;68.35;101306.66;4935105;29;20052;-90
2023/10/05 01:31:14;;;;;;;11.32;3.42;;;14.60;99.90;;;14.86;68.61;101314.13;4935429;29;20052;-90
2023/10/05 01:33:42;;;;;;;9.45;3.63;;;14.60;99.90;;;14.90;68.72;101316.16;4920071;29;20048;-90
2023/10/05 01:36:11;;;;;;;13.63;3.50;;;14.60;99.90;;;14.93;68.68;101318.41;4913444;29;20050;-90
2023/10/05 01:38:40;;;;;;;10.00;3.30;;;14.60;99.90;;;14.94;68.61;101327.28;4938881;29;20044;-90
2023/10/05 01:41:09;;;;;;;14.88;3.95;;;14.60;99.90;;;14.89;68.58;101317.22;4937829;29;20052;-90
2023/10/05 01:43:42;;;;;;;13.02;3.30;;;14.60;99.90;;;14.90;68.39;101316.16;4937801;29;20428;-90
2023/10/05 01:46:11;;;;;;;12.38;3.67;;;14.60;99.90;;;14.88;68.57;101315.56;4937659;29;20044;-90
2023/10/05 01:48:38;;;;;;;14.55;3.42;;;14.60;99.90;;;14.90;68.23;101305.41;4938064;29;20050;-90
2023/10/05 01:51:10;;;;;;;11.80;3.28;;;14.60;99.90;;;14.80;68.34;101306.94;4966439;28;20574;-90
2023/10/05 01:53:40;;;;;;;12.75;3.55;;;14.60;99.90;;;14.73;68.74;101306.16;4918860;29;20546;-90
2023/10/05 01:56:17;;;;;;;12.95;3.38;;;14.50;99.90;;;14.78;68.58;101304.47;4971701;28;20102;-90
2023/10/05 01:58:50;;;;;;;12.43;3.45;;;14.50;99.90;;;14.84;68.53;101305.47;4957483;28;20423;-90
2023/10/05 02:01:20;;;;;;;13.07;3.58;;;14.50;99.90;;;14.88;68.52;101301.28;4956824;28;20051;-90
2023/10/05 02:03:48;;;;;;;10.20;3.30;;;14.50;99.90;;;14.86;68.43;101301.53;4941477;29;20082;-90
2023/10/05 02:06:16;;;;;;;16.35;4.38;;;14.50;99.90;;;14.83;68.48;101301.94;4958005;28;20137;-90
2023/10/05 02:08:45;;;;;;;15.18;3.35;;;14.50;99.90;;;14.85;68.64;101299.88;4927003;29;20064;-90
2023/10/05 02:11:18;;;;;;;11.35;3.47;;;14.50;99.90;;;14.83;68.37;101311.88;4955375;29;20059;-90
2023/10/05 02:13:48;;;;;;;15.15;3.58;;;14.50;99.90;;;14.81;68.65;101306.72;4941385;29;20051;-90
2023/10/05 02:16:18;;;;;;;12.43;3.60;;;14.50;99.90;;;14.82;68.63;101305.69;4936110;29;20052;-90
2023/10/05 02:18:47;;;;;;;10.90;3.08;;;14.50;99.90;;;14.86;68.54;101306.06;4911057;29;20048;-90
2023/10/05 02:21:29;;;;;;;12.68;3.25;;;14.50;99.90;;;14.86;68.54;101306.06;4926272;29;20076;-90
2023/10/05 02:24:10;;;;;;;14.40;3.83;;;14.50;99.90;;;14.79;68.64;101306.13;4920085;29;20048;-90
2023/10/05 02:26:45;;;;;;;12.70;3.58;;;14.50;99.90;;;14.82;68.77;101300.31;4950681;29;20498;-90
2023/10/05 02:29:14;;;;;;;12.05;3.47;;;14.50;99.90;;;14.81;68.68;101304.03;4965308;28;20084;-90
2023/10/05 02:31:56;;;;;;;14.43;3.92;;;14.50;99.90;;;14.82;68.68;101300.31;4965451;28;20052;-90
2023/10/05 02:34:27;;;;;;;11.25;3.03;;;14.50;99.90;;;14.84;68.71;101297.41;4949429;29;20052;-89
2023/10/05 02:36:56;;;;;;;15.05;3.97;;;14.50;99.90;;;14.75;68.96;101298.72;4921482;29;20132;-90
2023/10/05 02:39:32;;;;;;;10.45;3.30;;;14.40;99.90;;;14.77;69.22;101291.25;4918519;29;20507;-90
2023/10/05 02:42:03;;;;;;;15.00;3.28;;;14.40;99.90;;;14.79;68.95;101290.03;4949608;28;20409;-90
2023/10/05 02:44:31;;;;;;;10.50;3.08;;;14.50;99.90;;;14.82;68.70;101289.56;4903103;29;20044;-90
2023/10/05 02:46:59;;;;;;;9.27;3.17;;;14.50;99.90;;;14.82;68.96;101284.19;4917681;29;20044;-90
2023/10/05 02:49:27;;;;;;;14.18;3.67;;;14.50;99.90;;;14.83;69.26;101285.81;4917815;29;20044;-90
2023/10/05 02:51:57;;;;;;;12.77;3.47;;;14.50;99.90;;;14.85;69.05;101283.75;4902345;29;20051;-90
2023/10/05 02:54:25;;;;;;;11.52;3.40;;;14.50;99.90;;;14.82;69.22;101278.81;4918375;29;20071;-90
2023/10/05 02:56:54;;;;;;;10.18;3.30;;;14.50;99.90;;;14.84;69.25;101276.75;4952869;28;20044;-90
2023/10/05 02:59:23;;;;;;;9.57;3.10;;;14.50;99.90;;;14.85;69.02;101278.41;4922800;29;20044;-90
2023/10/05 03:01:53;;;;;;;12.80;3.78;;;14.50;99.90;;;14.80;69.25;101269.34;4933193;29;20056;-90
2023/10/05 03:04:22;;;;;;;9.30;3.00;;;14.40;99.90;;;14.82;68.94;101272.63;4932940;29;20048;-90
2023/10/05 03:06:52;;;;;;;16.60;3.63;;;14.40;99.90;;;14.80;69.15;101270.19;4917179;29;20044;-90
2023/10/05 03:09:21;;;;;;;17.25;4.13;;;14.40;99.90;;;14.75;69.26;101279.94;4949212;28;20067;-90
2023/10/05 03:11:51;;;;;;;13.57;3.65;;;14.40;99.90;;;14.67;69.21;101270.28;4932987;29;20103;-90
2023/10/05 03:14:21;;;;;;;15.30;3.67;;;14.40;99.90;;;14.68;69.31;101277.28;4916139;29;20046;-89
2023/10/05 03:16:50;;;;;;;12.25;3.47;;;14.40;99.90;;;14.72;69.38;101273.13;4917550;29;20424;-90
2023/10/05 03:19:21;;;;;;;13.50;3.22;;;14.40;99.90;;;14.70;69.29;101272.53;4917320;29;20056;-90
2023/10/05 03:21:52;;;;;;;10.00;3.15;;;14.40;99.90;;;14.68;69.43;101266.53;4949127;28;20055;-91
2023/10/05 03:24:24;;;;;;;11.75;3.22;;;14.40;99.90;;;14.70;69.68;101271.72;4916944;29;20044;-90
2023/10/05 03:26:55;;;;;;;12.88;3.22;;;14.40;99.90;;;14.68;69.34;101272.72;4948916;28;20143;-90
2023/10/05 03:29:23;;;;;;;;;;;14.40;99.90;;;14.66;69.65;101274.00;4917432;29;20055;-90
2023/10/05 03:31:54;;;;;;;11.55;3.25;;;14.30;99.90;;;14.65;69.64;101269.69;4932723;29;20370;-90
2023/10/05 03:34:25;;;;;;;9.43;2.95;;;14.30;99.90;;;14.63;69.79;101264.50;4934031;29;20048;-90
2023/10/05 03:36:54;;;;;;;9.30;3.08;;;14.30;99.90;;;14.61;69.34;101266.59;4951478;28;20048;-90
2023/10/05 03:39:23;;;;;;;9.43;3.00;;;14.30;99.90;;;14.64;69.73;101258.13;4935797;29;20047;-90
2023/10/05 03:41:52;;;;;;;12.07;3.53;;;14.30;99.90;;;14.64;69.63;101259.97;4950854;28;20047;-90
2023/10/05 03:44:21;;;;;;;12.93;3.42;;;14.30;99.90;;;14.61;69.65;101271.97;4951334;28;20455;-90
2023/10/05 03:46:49;;;;;;;9.02;3.10;;;14.30;99.90;;;14.63;69.61;101263.69;4951389;28;20193;-90
2023/10/05 03:49:18;;;;;;;8.00;3.13;;;14.30;99.90;;;14.57;69.47;101276.13;4965137;28;20056;-90
2023/10/05 03:51:51;;;;;;;9.95;2.85;;;14.30;99.90;;;14.57;69.82;101281.50;4967283;28;20130;-90
2023/10/05 03:54:21;;;;;;;11.52;3.00;;;14.30;99.90;;;14.60;69.42;101280.25;4934868;29;20134;-90
2023/10/05 03:56:50;;;;;;;7.35;2.67;;;14.30;99.90;;;14.61;69.49;101273.84;4935334;29;20051;-90
2023/10/05 03:59:20;;;;;;;8.85;3.00;;;14.30;99.90;;;14.60;69.51;101273.00;4951412;28;20058;-90
2023/10/05 04:01:49;;;;;;;11.02;3.03;;;14.20;99.90;;;14.59;69.37;101278.59;4919586;29;20076;-90
2023/10/05 04:04:17;;;;;;;15.13;3.15;;;14.20;99.90;;;14.59;69.41;101281.28;4934223;29;20507;-90
2023/10/05 04:06:45;;;;;;;11.15;3.25;;;14.20;99.90;;;14.57;69.52;101278.81;4936501;28;20048;-90
2023/10/05 04:09:16;;;;;;;9.20;2.83;;;14.20;99.90;;;14.57;69.43;101284.19;4967161;28;20052;-90
2023/10/05 04:11:44;;;;;;;10.90;3.25;;;14.20;99.90;;;14.53;69.49;101280.28;4952306;28;20066;-90
2023/10/05 04:14:12;;;;;;;11.30;3.05;;;14.20;99.90;;;14.55;69.44;101290.81;4935740;29;20051;-90
2023/10/05 04:16:42;;;;;;;8.95;2.75;;;14.20;99.90;;;14.51;69.39;101278.88;4935349;29;20075;-90
2023/10/05 04:19:10;;;;;;;12.68;2.80;;;14.20;99.90;;;14.51;69.85;101277.00;4934143;29;20043;-90
2023/10/05 04:21:40;;;;;;;10.88;3.00;;;14.20;99.90;;;14.51;69.56;101281.56;4935277;29;20044;-90
2023/10/05 04:24:14;;;;;;;8.82;2.75;;;14.10;99.90;;;14.50;69.68;101280.72;4962415;28;20065;-90
2023/10/05 04:26:45;;;;;;;11.18;3.08;;;14.10;99.90;;;14.51;69.67;101273.50;4935239;29;20051;-90
2023/10/05 04:29:14;;;;;;;12.20;2.85;;;14.10;99.90;;;14.50;69.80;101274.53;4967194;28;20059;-90
2023/10/05 04:31:48;;;;;;;13.27;3.22;;;14.10;99.90;;;14.51;69.72;101276.19;4934895;29;20422;-90
2023/10/05 04:34:18;;;;;;;8.95;3.20;;;14.10;99.90;;;14.53;69.57;101274.09;4966492;28;20596;-90
2023/10/05 04:36:46;;;;;;;8.30;3.10;;;14.10;99.90;;;14.53;69.58;101272.22;4967345;28;20047;-91
2023/10/05 04:39:21;;;;;;;14.65;2.83;;;14.20;99.90;;;14.52;69.54;101272.47;4930829;29;20508;-90
2023/10/05 04:41:51;;;;;;;11.40;3.15;;;14.10;99.90;;;14.46;69.88;101282.16;4915578;29;20182;-90
2023/10/05 04:44:18;;;;;;;12.10;2.58;;;14.10;99.90;;;14.46;69.92;101275.97;4917400;29;20052;-90
2023/10/05 04:46:48;;;;;;;10.23;2.70;;;14.10;99.90;;;14.45;69.95;101277.03;4953509;29;20423;-90
2023/10/05 04:49:16;;;;;;;8.70;2.63;;;14.00;99.90;;;14.47;70.05;101275.75;4953208;29;20578;-90
2023/10/05 04:51:44;;;;;;;9.60;3.28;;;14.10;99.90;;;14.39;69.87;101263.41;4937241;29;20059;-90
2023/10/05 04:54:18;;;;;;;11.63;3.30;;;14.10;99.90;;;14.28;70.46;101272.16;4957716;28;20126;-90
2023/10/05 04:56:53;;;;;;;9.20;2.92;;;14.00;99.90;;;14.36;70.56;101271.09;4958463;28;20493;-90
2023/10/05 04:59:48;;;;;;;9.63;3.10;;;14.00;99.90;;;14.41;70.35;101273.94;4975849;28;20068;-90
2023/10/05 05:02:21;;;;;;;11.90;3.00;;;14.10;99.90;;;14.42;70.26;101271.03;4960003;28;20054;-90
2023/10/05 05:05:31;;;;;;;10.88;2.80;;;14.10;99.90;;;14.42;70.47;101262.16;4959980;28;20150;-90
2023/10/05 05:07:57;;;;;;;16.02;3.67;;;14.00;99.90;;;14.36;70.44;101268.41;4959839;28;20065;-90
2023/10/05 05:10:24;;;;;;;12.77;3.58;;;14.00;99.90;;;14.36;70.61;101269.22;4959705;28;20129;-90
2023/10/05 05:12:53;;;;;;;8.55;3.22;;;14.00;99.90;;;14.32;70.62;101267.19;4956702;28;20047;-90
2023/10/05 05:15:21;;;;;;;10.80;3.00;;;14.00;99.90;;;14.25;70.70;101272.59;4970220;28;20039;-90
2023/10/05 05:17:50;;;;;;;8.85;2.75;;;14.00;99.90;;;14.25;70.86;101259.19;4948544;28;20482;-90
2023/10/05 05:20:18;;;;;;;10.90;2.80;;;13.90;99.90;;;14.28;70.85;101268.66;4939336;28;20058;-90
2023/10/05 05:22:47;;;;;;;11.85;3.55;;;13.90;99.90;;;14.32;70.69;101268.00;4938207;29;20496;-90
2023/10/05 05:25:19;;;;;;;12.75;3.45;;;14.00;99.90;;;14.28;70.79;101264.09;4937808;29;20128;-90
2023/10/05 05:27:48;;;;;;;14.50;3.30;;;13.90;99.90;;;14.27;70.80;101265.16;4969798;28;20053;-90
2023/10/05 05:30:24;;;;;;;11.60;3.78;;;13.90;99.90;;;14.22;70.89;101259.63;4948894;28;20404;-90
2023/10/05 05:32:56;;;;;;;11.18;3.67;;;13.90;99.90;;;14.18;71.21;101267.25;4919867;29;20047;-90
2023/10/05 05:35:24;;;;;;;8.68;2.88;;;13.90;99.90;;;14.25;71.07;101271.75;4934873;29;20051;-90
2023/10/05 05:37:56;;;;;;;14.27;3.63;;;13.90;99.90;;;14.30;70.88;101269.25;4937698;29;20043;-90
2023/10/05 05:40:28;;;;;;;8.07;2.80;;;13.90;99.90;;;14.29;71.00;101260.38;4922471;29;20044;-90
2023/10/05 05:42:57;;;;;;;10.93;3.13;;;14.00;99.90;;;14.30;70.97;101258.50;4939026;28;20419;-90
2023/10/05 05:45:25;;;;;;;10.85;3.13;;;14.00;99.90;;;14.32;70.66;101256.47;4938670;29;20127;-90
2023/10/05 05:47:55;;;;;;;13.82;3.50;;;14.00;99.90;;;14.28;70.85;101249.88;4921975;29;20124;-90
2023/10/05 05:50:29;;;;;;;11.52;3.17;;;14.00;99.90;;;14.28;70.96;101248.00;4918923;29;20048;-90
2023/10/05 05:52:59;;;;;;;10.80;3.03;;;14.00;99.90;;;14.23;71.00;101242.47;4934181;29;20048;-90
2023/10/05 05:55:29;;;;;;;11.82;2.90;;;13.90;99.90;;;14.27;71.11;101249.06;4935918;28;20412;-90
2023/10/05 05:57:59;;;;;;;12.70;3.00;;;14.00;99.90;;;14.30;70.95;101247.78;4938222;29;20075;-90
2023/10/05 06:00:28;;;;;;;11.55;3.10;;;14.00;99.90;;;14.27;71.13;101257.09;4938759;29;20114;-90
2023/10/05 06:02:58;;;;;;;10.13;3.05;;;14.00;99.90;;;14.30;71.01;101259.38;4920215;29;20071;-90
2023/10/05 06:05:27;;;;;;;13.23;3.28;;;14.00;99.90;;;14.31;71.22;101277.09;4969061;28;20048;-90
2023/10/05 06:08:00;;;;;;;12.65;3.30;;;13.90;99.90;;;14.33;71.26;101275.00;4972435;28;20546;-90
2023/10/05 06:10:34;;;;;;;13.95;3.28;;;14.00;99.90;;;14.34;71.21;101286.56;4973529;28;20155;-90
2023/10/05 06:13:02;;;;;;;11.82;3.08;;;14.00;99.90;;;14.37;71.25;101307.63;4934849;29;20051;-90
2023/10/05 06:15:30;;;;;;;8.52;3.00;;;14.00;99.90;;;14.35;71.32;101310.53;4920967;29;20075;-90
2023/10/05 06:18:00;;;;;;;13.68;3.20;;;14.00;99.90;;;14.33;71.44;101323.31;4938403;29;20495;-90
2023/10/05 06:20:27;;;;;;;18.48;3.10;;;14.00;99.90;;;14.32;71.24;101328.91;4922315;29;20443;-90
2023/10/05 06:22:55;;;;;;;11.43;3.22;;;14.00;99.90;;;14.25;71.45;101328.94;4937862;29;20051;-90
2023/10/05 06:25:23;;;;;;;13.60;3.13;;;14.00;99.90;;;14.28;71.67;101331.19;4938122;29;20105;-90
2023/10/05 06:27:51;;;;;;;13.43;3.40;;;14.00;99.90;;;14.29;71.77;101332.81;4968996;28;20494;-90
2023/10/05 06:30:20;;;;;;;19.83;3.35;;;14.00;99.90;;;14.32;71.67;101321.69;4935145;29;20104;-90
2023/10/05 06:32:48;;;;;;;13.20;3.33;;;14.10;99.90;;;14.34;71.75;101330.31;4937332;29;20047;-90
2023/10/05 06:35:17;;;;;;;10.60;3.35;;;14.10;99.90;;;14.37;71.68;101331.78;4903754;29;20048;-90
2023/10/05 06:37:45;;;;;;;10.35;2.80;;;14.10;99.90;;;14.40;71.83;101326.00;4933675;29;20111;-90
2023/10/05 06:40:13;;;;;;;13.25;3.53;;;14.10;99.90;;;14.43;71.88;101329.03;4917801;29;20040;-90
2023/10/05 06:42:41;;;;;;;13.13;3.30;;;14.20;99.90;;;14.31;72.03;101335.31;4934070;29;20145;-90
2023/10/05 06:45:15;;;;;;;13.55;3.15;;;14.10;99.90;;;14.27;72.58;101331.41;4920586;29;20074;-90
2023/10/05 06:47:43;;;;;;;11.43;3.47;;;14.10;99.90;;;14.24;72.39;101340.69;4902852;29;20048;-90
2023/10/05 06:50:11;;;;;;;10.98;2.88;;;14.10;99.90;;;14.31;72.43;101335.31;4917441;29;20044;-90
2023/10/05 06:52:43;;;;;;;15.68;3.58;;;14.20;99.90;;;14.37;72.37;101337.97;4918595;29;20044;-90
2023/10/05 06:55:12;;;;;;;15.43;3.22;;;14.20;99.90;;;14.43;72.42;101329.03;4933311;29;20050;-90
2023/10/05 06:57:39;;;;;;;11.40;3.60;;;14.20;99.90;;;14.47;72.09;101326.75;4937460;29;20500;-90
2023/10/05 07:00:16;;;;;;;12.27;3.33;;;14.30;99.90;;;14.46;72.37;101329.66;4968222;28;20051;-90
2023/10/05 07:02:44;;;;;;;12.18;3.15;;;14.30;99.90;;;14.50;72.25;101325.53;4935962;29;20055;-90
2023/10/05 07:05:12;;;;;;;11.98;3.45;;;14.30;99.90;;;14.53;72.35;101333.16;4920228;29;20040;-90
2023/10/05 07:07:42;;;;;;;11.88;3.47;;;14.30;99.90;;;14.43;72.44;101337.09;4920406;29;20060;-90
2023/10/05 07:10:13;;;;;;;9.13;3.60;;;14.30;99.90;;;14.46;72.60;101346.59;4936002;29;20134;-90
2023/10/05 07:12:45;;;;;;;13.23;2.78;;;14.30;99.90;;;14.51;72.81;101336.06;4920257;29;20048;-90
2023/10/05 07:15:12;;;;;;;;;;;14.40;99.90;;;14.54;72.50;101330.28;4968132;28;20051;-90
2023/10/05 07:17:39;;;;;;;15.75;3.38;;;14.40;99.90;;;14.55;72.63;101345.31;4937028;29;19923;-90
2023/10/05 07:20:11;;;;;;;12.95;3.58;;;14.40;99.90;;;14.62;72.42;101345.28;4934690;29;20071;-90
2023/10/05 07:22:42;;;;;;;12.18;3.47;;;14.40;99.90;;;14.67;72.59;101357.00;4937208;29;20460;-90
2023/10/05 07:25:14;;;;;;;9.63;3.30;;;14.50;99.90;;;14.71;72.30;101349.34;4935913;29;20044;-90
2023/10/05 07:27:42;;;;;;;12.93;2.97;;;14.50;99.90;;;14.67;72.60;101358.88;4937264;29;20040;-90
2023/10/05 07:30:11;;;;;;;7.82;2.85;;;14.50;99.90;;;14.72;72.66;101364.41;4936970;29;20082;-90
2023/10/05 07:32:39;;;;;;;11.93;3.67;;;14.50;99.90;;;14.76;72.73;101367.50;4935729;29;20048;-90
2023/10/05 07:35:08;;;;;;;10.88;3.58;;;14.60;99.90;;;14.79;72.76;101367.91;4936355;29;20044;-90
2023/10/05 07:37:36;;;;;;;9.90;3.55;;;14.60;99.90;;;14.78;72.76;101371.59;4917550;28;20064;-90
2023/10/05 07:40:07;;;;;;;12.30;3.72;;;14.60;99.90;;;14.79;72.74;101375.97;4917070;29;20072;-90
2023/10/05 07:42:39;;;;;;;10.57;3.33;;;14.60;99.90;;;14.77;72.84;101372.66;4918174;28;20052;-91
2023/10/05 07:45:11;;;;;;;10.35;3.60;;;14.60;99.90;;;14.82;73.07;101370.13;4917207;29;20499;-90
2023/10/05 07:47:43;;;;;;;14.85;3.75;;;14.70;99.90;;;14.84;72.92;101383.38;4918453;29;20405;-90
2023/10/05 07:50:17;;;;;;;15.45;3.95;;;14.70;99.90;;;14.84;72.76;101383.38;4933434;29;20055;-90
2023/10/05 07:52:48;;;;;;;18.58;4.00;;;14.70;99.90;;;14.84;72.84;101386.88;4932323;29;20056;-89
2023/10/05 07:55:17;;;;;;;15.32;3.60;;;14.70;99.90;;;14.82;72.80;101386.25;4918018;29;20059;-90
2023/10/05 07:57:45;;;;;;;10.48;3.20;;;14.70;99.90;;;14.90;73.05;101395.91;4917115;29;20044;-90
2023/10/05 08:00:14;;;;;;;13.43;4.03;;;14.80;99.90;;;14.87;73.13;101405.22;4917387;29;20508;-90
2023/10/05 08:02:42;;;;;;;12.43;3.58;;;14.80;99.90;;;14.83;73.34;101405.88;4932700;29;20575;-91
2023/10/05 08:05:11;;;;;;;13.10;3.72;;;14.80;99.90;;;14.77;73.29;101404.06;4924978;29;20407;-90
2023/10/05 08:07:39;;;;;;;17.13;4.28;;;14.80;99.90;;;14.80;73.42;101403.63;4919161;29;20058;-90
2023/10/05 08:10:15;;;;;;;14.35;4.07;;;14.80;99.90;;;14.80;73.34;101409.00;4967344;28;20043;-90
2023/10/05 08:12:44;;;;;;;10.57;3.60;;;14.80;99.90;;;14.75;73.92;101400.78;4934644;29;20062;-89
2023/10/05 08:15:18;;;;;;;15.23;4.45;;;14.80;99.90;;;14.77;74.04;101410.25;4947886;28;20099;-90
2023/10/05 08:17:46;;;;;;;13.48;3.88;;;14.80;99.90;;;14.85;74.15;101412.69;4932025;29;20052;-90
2023/10/05 08:20:15;;;;;;;17.13;3.60;;;14.90;99.90;;;14.92;73.94;101407.25;4916285;29;20044;-88
2023/10/05 08:22:43;;;;;;;10.80;4.20;;;14.90;99.90;;;14.99;73.54;101424.16;4931182;29;20555;-87
2023/10/05 08:25:11;;;;;;;13.85;4.15;;;15.00;99.90;;;15.05;73.65;101414.41;4916093;29;20044;-88
2023/10/05 08:27:39;;;;;;;15.80;4.00;;;15.00;99.90;;;14.93;73.41;101425.00;4917695;29;20051;-88
2023/10/05 08:30:11;;;;;;;14.70;3.92;;;15.00;99.90;;;14.93;73.52;101425.00;4920813;29;20048;-89
2023/10/05 08:32:39;;;;;;;11.27;3.78;;;15.00;99.90;;;15.01;73.60;101429.31;4936297;29;20052;-89
2023/10/05 08:35:14;;;;;;;12.15;3.90;;;15.00;99.90;;;15.03;74.11;101433.44;4923217;29;20048;-88
2023/10/05 08:37:48;;;;;;;14.48;4.10;;;15.10;99.90;;;15.09;73.74;101431.75;4935166;29;20063;-86
2023/10/05 08:40:37;;;;;;;13.60;3.85;;;15.10;99.90;;;15.10;73.71;101436.09;4935970;29;20051;-86
2023/10/05 08:43:11;;;;;;;12.05;3.50;;;15.10;99.90;;;15.16;73.77;101427.13;4951381;29;20051;-88
2023/10/05 08:45:51;;;;;;;11.57;3.70;;;15.20;99.90;;;15.18;73.71;101427.75;4951664;28;20041;-86
2023/10/05 08:48:28;;;;;;;14.75;3.80;;;15.20;99.90;;;15.20;73.11;101425.66;4935440;29;20052;-86
2023/10/05 08:51:04;;;;;;;18.17;4.63;;;15.20;99.90;;;15.22;73.32;101418.19;4920564;29;20154;-89
2023/10/05 08:53:33;;;;;;;14.45;4.13;;;15.20;99.90;;;15.25;73.74;101422.34;4926766;29;20488;-87
2023/10/05 08:56:03;;;;;;;12.75;4.07;;;15.30;99.90;;;15.27;73.84;101426.44;4938018;29;20039;-88
2023/10/05 08:58:34;;;;;;;19.52;4.85;;;15.30;99.90;;;15.28;73.96;101420.03;4970461;28;20043;-90
2023/10/05 09:01:29;;;;;;;17.50;4.20;;;15.40;99.90;;;15.33;74.24;101430.13;4938676;29;20587;-88
2023/10/05 09:04:11;;;;;;;17.45;4.78;;;15.40;99.90;;;15.36;74.58;101429.69;4939088;29;20055;-88
2023/10/05 09:06:47;;;;;;;;;;;15.50;99.90;;;15.33;73.61;101436.31;4940081;29;20058;-89
2023/10/05 09:09:17;;;;;;;13.95;4.13;;;15.50;99.90;;;15.34;73.29;101435.28;4938720;29;20284;-89
2023/10/05 09:11:45;;;;;;;15.63;3.88;;;15.40;99.90;;;15.41;74.24;101438.72;4936999;29;20044;-89
2023/10/05 09:14:23;;;;;;;14.00;4.35;;;15.50;99.90;;;15.45;73.74;101434.56;4933186;29;20055;-89
2023/10/05 09:16:57;;;;;;;16.80;4.05;;;15.60;99.90;;;15.43;73.28;101442.03;4938202;29;20142;-89
2023/10/05 09:19:33;;;;;;;15.52;4.10;;;15.60;99.90;;;15.48;73.75;101436.00;4954459;28;20478;-89
2023/10/05 09:24:53;;;;;;;17.27;4.45;;;15.70;99.90;;;15.61;73.33;101443.09;4939288;29;20043;-89
2023/10/05 09:27:26;;;;;;;12.85;4.03;;;15.70;99.90;;;15.62;73.28;101453.66;4920147;29;20508;-89
2023/10/05 09:30:09;;;;;;;15.73;4.07;;;15.80;99.90;;;15.65;73.33;101460.50;4919463;29;20131;-89
2023/10/05 09:32:39;;;;;;;18.20;4.85;;;15.80;99.90;;;15.64;72.92;101459.66;4920844;29;20052;-89
2023/10/05 09:35:10;;;;;;;11.55;4.07;;;15.80;99.90;;;15.65;72.18;101457.78;4939035;28;20087;-89
2023/10/05 09:37:42;;;;;;;14.02;4.18;;;15.80;99.90;;;15.68;72.41;101465.44;4954002;29;20051;-89
2023/10/05 09:40:16;;;;;;;13.32;3.90;;;15.80;99.90;;;15.72;72.67;101455.06;4952817;28;20054;-89
2023/10/05 09:42:46;;;;;;;18.20;4.93;;;15.90;99.90;;;15.76;73.42;101465.13;4953674;28;20142;-89
2023/10/05 09:45:14;;;;;;;18.70;4.38;;;15.90;99.90;;;15.76;72.45;101465.13;4943699;28;20131;-89
2023/10/05 09:47:46;;;;;;;12.18;4.15;;;15.90;99.90;;;15.81;72.64;101464.47;4933068;29;20094;-89
2023/10/05 09:50:15;;;;;;;16.45;4.07;;;15.90;99.90;;;15.86;72.92;101468.16;4938768;28;20586;-89
2023/10/05 09:52:45;;;;;;;21.88;4.78;;;16.00;99.90;;;15.91;73.66;101471.03;4933814;29;20052;-88
2023/10/05 09:55:17;;;;;;;14.82;3.63;;;16.00;99.90;;;15.94;73.04;101470.56;4938578;29;20492;-89
2023/10/05 09:57:51;;;;;;;15.20;4.40;;;16.00;99.90;;;15.98;72.66;101481.72;4932182;28;20060;-89
2023/10/05 10:00:30;;;;;;;16.88;4.60;;;16.10;99.90;;;16.01;73.29;101489.34;4924259;29;20044;-89
2023/10/05 10:03:01;;;;;;;15.35;4.10;;;16.10;99.90;;;16.02;72.49;101490.16;4920825;29;20047;-89
2023/10/05 10:05:42;;;;;;;12.73;3.70;;;16.20;99.90;;;16.02;72.17;101484.78;4936569;29;20058;-90
2023/10/05 10:08:14;;;;;;;16.08;4.07;;;16.20;99.90;;;16.00;72.17;101486.84;4951392;28;20078;-89
2023/10/05 10:11:02;;;;;;;14.75;4.05;;;16.20;99.90;;;16.00;72.29;101479.59;4936335;29;20059;-89
2023/10/05 10:13:38;;;;;;;15.55;3.78;;;16.20;99.90;;;16.01;72.48;101481.28;4953850;28;20056;-89
2023/10/05 10:16:17;;;;;;;17.52;4.55;;;16.20;99.90;;;16.00;71.89;101486.84;4950173;29;20527;-89
2023/10/05 10:18:46;;;;;;;10.65;3.80;;;16.20;99.90;;;16.02;72.08;101479.41;4949262;28;20079;-89
2023/10/05 10:21:24;;;;;;;12.55;3.95;;;16.20;99.90;;;16.06;72.18;101483.31;4902266;29;20063;-89
2023/10/05 10:24:03;;;;;;;13.82;4.05;;;16.20;99.90;;;15.98;71.18;101486.28;4917528;29;20526;-89
2023/10/05 10:26:32;;;;;;;12.55;4.35;;;16.20;99.90;;;15.97;71.60;101477.38;4920171;29;20530;-89
2023/10/05 10:29:05;;;;;;;14.30;3.60;;;16.20;99.90;;;15.98;71.00;101481.72;4953000;28;20056;-89